Terminal Aerodrome Forecast
Issued by NWS Wilmington, OH

Current Version | Previous Version | Graphics & Text | Print | Product List | Glossary On
Versions: 1 2 3 4 5 6 7 8 9 10 11 12 13 14 15 16 17 18 19 20 21 22
934
FTUS41 KILN 221741
TAFDAY
TAF
KDAY 221741Z 2218/2318 07007KT P6SM SCT040 BKN120
     FM222300 06008KT P6SM VCSH OVC060
      TEMPO 2301/2303 -SHRA
     FM230800 02012KT 3SM -SHRA OVC005
     FM231500 01014KT 3SM BR VCSH OVC005=

USA.gov is the U.S. government's official web portal to all federal, state and local government web resources and services.